Time;durP1;ratioP1;P1;durP2;ratioP2;P2;SDS_P1;SDS_P2;PMS_P1;PMS_P2;Temp;Humidity;BMP_temperature;BMP_pressure;BME280_temperature;BME280_humidity;BME280_pressure;Samples;Min_cycle;Max_cycle;Signal;HPM_P1;HPM_P2
2022/08/30 00:01:23;;;;;;;10.10;5.78;;;;;;;19.45;59.53;101943.44;6305549;22;20026;-58
2022/08/30 00:03:48;;;;;;;9.88;5.95;;;;;;;19.41;60.09;101948.78;6304949;22;20331;-58
2022/08/30 00:06:17;;;;;;;12.05;5.88;;;;;;;19.41;60.03;101931.06;6305249;22;19999;-58
2022/08/30 00:08:43;;;;;;;10.27;6.30;;;;;;;19.33;60.43;101924.88;6305704;22;20007;-58
2022/08/30 00:11:12;;;;;;;13.88;5.70;;;;;;;19.38;60.12;101927.69;6304506;22;20035;-57
2022/08/30 00:13:40;;;;;;;12.18;5.60;;;;;;;19.37;60.23;101927.97;6305525;22;20748;-57
2022/08/30 00:16:05;;;;;;;13.60;6.20;;;;;;;19.31;60.49;101927.16;6305316;22;20011;-58
2022/08/30 00:18:32;;;;;;;12.38;5.97;;;;;;;19.30;60.45;101933.91;6304799;22;20299;-58
2022/08/30 00:20:57;;;;;;;10.57;5.53;;;;;;;19.37;60.43;101940.09;6305557;22;20121;-58
2022/08/30 00:23:23;;;;;;;10.20;5.28;;;;;;;19.33;60.49;101935.31;6304823;22;20232;-58
2022/08/30 00:25:49;;;;;;;10.85;6.18;;;;;;;19.31;60.45;101938.41;6303575;22;20031;-57
2022/08/30 00:28:15;;;;;;;10.77;6.22;;;;;;;19.25;60.97;101938.69;6305930;22;20045;-57
2022/08/30 00:30:41;;;;;;;10.27;5.30;;;;;;;19.21;60.92;101944.06;6303912;22;20007;-57
2022/08/30 00:33:07;;;;;;;10.65;5.97;;;;;;;19.21;60.90;101941.25;6305129;22;20462;-57
2022/08/30 00:35:32;;;;;;;10.00;5.55;;;;;;;19.21;61.08;101937.59;6305548;22;20003;-58
2022/08/30 00:37:57;;;;;;;10.00;5.65;;;;;;;19.24;60.92;101940.69;6304845;22;20079;-58
2022/08/30 00:40:24;;;;;;;12.82;6.60;;;;;;;19.14;61.30;101935.09;6304636;22;20007;-57
2022/08/30 00:42:49;;;;;;;11.75;5.70;;;;;;;19.17;61.21;101928.88;6306029;22;20010;-57
2022/08/30 00:45:22;;;;;;;8.35;5.30;;;;;;;19.14;61.37;101937.91;6304608;22;20011;-57
2022/08/30 00:47:47;;;;;;;9.00;5.85;;;;;;;19.09;61.77;101947.16;6305952;22;19999;-57
2022/08/30 00:50:15;;;;;;;11.02;5.85;;;;;;;19.16;61.44;101946.88;6304746;22;20019;-57
2022/08/30 00:52:45;;;;;;;7.78;5.65;;;;;;;19.17;61.32;101948.56;6304083;22;20007;-57
2022/08/30 00:55:13;;;;;;;10.75;5.47;;;;;;;19.14;61.73;101949.16;6305082;22;20003;-57
2022/08/30 00:57:40;;;;;;;12.63;6.45;;;;;;;19.16;61.53;101944.06;6306159;22;20026;-57
2022/08/30 01:00:07;;;;;;;9.35;5.03;;;;;;;19.08;61.68;101947.47;6304597;22;20079;-57
2022/08/30 01:02:32;;;;;;;14.23;5.45;;;;;;;19.18;61.54;101944.66;6304036;22;20018;-57
2022/08/30 01:05:01;;;;;;;12.07;5.65;;;;;;;19.09;62.09;101949.16;6305615;22;20319;-57
2022/08/30 01:07:27;;;;;;;9.65;4.85;;;;;;;19.12;61.72;101940.16;6305713;22;20003;-57
2022/08/30 01:09:52;;;;;;;9.35;5.28;;;;;;;19.09;62.27;101946.34;6304379;22;20090;-59
2022/08/30 01:12:18;;;;;;;13.73;5.25;;;;;;;19.11;61.91;101946.91;6304309;22;20018;-59
2022/08/30 01:14:44;;;;;;;8.52;4.80;;;;;;;19.06;62.25;101953.41;6303968;22;20007;-58
2022/08/30 01:17:09;;;;;;;7.18;4.85;;;;;;;19.09;62.25;101951.97;6305070;22;20009;-58
2022/08/30 01:19:40;;;;;;;9.40;5.13;;;;;;;19.08;62.33;101961.53;6305935;22;20031;-58
2022/08/30 01:22:26;;;;;;;6.47;4.90;;;;;;;19.16;61.46;101958.16;6303503;22;20007;-56
2022/08/30 01:24:55;;;;;;;7.63;4.85;;;;;;;19.15;61.73;101962.09;6304427;22;20003;-58
2022/08/30 01:27:22;;;;;;;7.55;4.97;;;;;;;19.18;61.89;101949.41;6302468;22;20014;-57
2022/08/30 01:29:49;;;;;;;9.25;4.75;;;;;;;19.09;62.07;101951.97;6305677;22;20007;-58
2022/08/30 01:32:20;;;;;;;9.27;5.10;;;;;;;19.16;61.92;101944.06;6305542;22;20014;-58
2022/08/30 01:34:49;;;;;;;9.27;5.38;;;;;;;19.17;61.92;101954.19;6304864;22;20007;-57
2022/08/30 01:37:20;;;;;;;7.35;4.88;;;;;;;19.08;62.10;101953.09;6304432;22;20042;-57
2022/08/30 01:39:46;;;;;;;10.55;5.40;;;;;;;19.11;61.92;101953.38;6304983;22;21884;-58
2022/08/30 01:42:12;;;;;;;10.88;5.40;;;;;;;19.04;62.42;101947.19;6304616;22;20370;-57
2022/08/30 01:44:38;;;;;;;8.70;5.40;;;;;;;19.01;62.57;101944.94;6304500;22;20019;-57
2022/08/30 01:47:04;;;;;;;12.63;5.40;;;;;;;18.94;62.54;101957.59;6304068;22;20007;-57
2022/08/30 01:49:30;;;;;;;7.88;5.43;;;;;;;18.99;62.47;101957.63;6304567;22;20022;-57
2022/08/30 01:51:56;;;;;;;6.20;5.10;;;;;;;18.98;62.38;101951.16;6304257;22;20419;-57
2022/08/30 01:54:21;;;;;;;10.13;5.03;;;;;;;18.96;62.58;101958.19;6304336;22;19999;-58
2022/08/30 01:56:47;;;;;;;9.80;5.45;;;;;;;18.98;62.63;101953.09;6303920;22;20007;-57
2022/08/30 01:59:12;;;;;;;9.50;5.50;;;;;;;19.00;62.39;101954.50;6304787;22;20335;-58
2022/08/30 02:01:38;;;;;;;7.18;5.32;;;;;;;18.95;62.61;101950.88;6304619;22;20049;-58
2022/08/30 02:04:05;;;;;;;8.57;4.95;;;;;;;18.93;62.62;101948.31;6304225;22;20052;-57
2022/08/30 02:06:31;;;;;;;9.77;5.57;;;;;;;18.91;62.77;101949.75;6303380;22;20011;-58
2022/08/30 02:08:57;;;;;;;7.88;5.15;;;;;;;18.89;62.75;101956.47;6304931;22;19995;-58
2022/08/30 02:11:22;;;;;;;12.55;5.43;;;;;;;18.93;62.66;101944.66;6304959;22;20014;-58
2022/08/30 02:13:48;;;;;;;8.80;5.85;;;;;;;18.91;62.71;101944.13;6305700;22;20450;-58
2022/08/30 02:16:16;;;;;;;7.32;5.47;;;;;;;18.89;62.99;101945.22;6303757;22;20003;-58
2022/08/30 02:18:42;;;;;;;8.05;5.40;;;;;;;18.91;62.59;101941.31;6304745;22;20327;-57
2022/08/30 02:21:08;;;;;;;8.15;5.07;;;;;;;18.84;62.55;101945.25;6305436;22;20007;-58
2022/08/30 02:23:35;;;;;;;8.05;5.50;;;;;;;18.83;62.88;101946.38;6304291;22;20038;-58
2022/08/30 02:26:00;;;;;;;8.68;5.80;;;;;;;18.85;62.58;101935.66;6302501;22;20030;-58
2022/08/30 02:28:26;;;;;;;8.45;5.47;;;;;;;18.87;62.82;101935.41;6303958;22;20008;-58
2022/08/30 02:30:52;;;;;;;8.02;5.38;;;;;;;18.83;62.76;101946.38;6303831;22;20018;-58
2022/08/30 02:33:17;;;;;;;5.95;4.82;;;;;;;18.85;62.67;101935.66;6304171;22;20426;-58
2022/08/30 02:35:43;;;;;;;9.73;5.45;;;;;;;18.86;62.67;101928.94;6306528;22;20003;-58
2022/08/30 02:38:08;;;;;;;10.02;5.15;;;;;;;18.83;62.57;101935.13;6306111;22;20349;-58
2022/08/30 02:40:34;;;;;;;8.52;5.63;;;;;;;18.78;62.85;101931.47;6306550;22;20030;-58
2022/08/30 02:42:59;;;;;;;9.02;5.78;;;;;;;18.72;63.21;101936.25;6307557;22;20403;-58
2022/08/30 02:45:24;;;;;;;7.35;5.60;;;;;;;18.68;63.28;101932.28;6304687;22;20034;-58
2022/08/30 02:47:50;;;;;;;7.38;5.60;;;;;;;18.77;62.89;101930.63;6306593;22;20000;-58
2022/08/30 02:50:16;;;;;;;8.57;5.25;;;;;;;18.77;62.90;101932.59;6307361;22;20000;-57
2022/08/30 02:52:41;;;;;;;8.98;5.50;;;;;;;18.68;63.28;101923.84;6305581;22;20010;-57
2022/08/30 02:55:07;;;;;;;9.45;5.28;;;;;;;18.70;63.15;101927.25;6306997;22;20402;-57
2022/08/30 02:57:33;;;;;;;7.38;5.68;;;;;;;18.68;63.15;101929.47;6306822;22;20296;-58
2022/08/30 02:59:58;;;;;;;8.32;6.00;;;;;;;18.68;63.09;101926.66;6304693;22;20018;-58
2022/08/30 03:02:24;;;;;;;7.95;6.07;;;;;;;18.67;63.16;101921.28;6305514;22;20069;-57
2022/08/30 03:04:50;;;;;;;6.70;5.95;;;;;;;18.60;63.28;101916.81;6304979;22;20003;-57
2022/08/30 03:07:16;;;;;;;8.45;5.93;;;;;;;18.61;63.28;101918.50;6304573;22;20061;-57
2022/08/30 03:09:41;;;;;;;8.02;5.97;;;;;;;18.61;63.12;101912.88;6305206;22;20007;-57
2022/08/30 03:12:07;;;;;;;6.72;5.95;;;;;;;18.60;63.42;101922.44;6305903;22;20003;-57
2022/08/30 03:14:35;;;;;;;8.85;6.00;;;;;;;18.54;63.43;101917.94;6305841;22;20007;-57
2022/08/30 03:17:01;;;;;;;7.72;5.65;;;;;;;18.42;64.06;101925.81;6305406;22;20446;-57
2022/08/30 03:19:27;;;;;;;8.68;6.38;;;;;;;18.42;63.66;101920.19;6305492;22;20130;-57
2022/08/30 03:21:53;;;;;;;8.88;6.05;;;;;;;18.43;63.86;101918.22;6305624;22;20069;-57
2022/08/30 03:24:19;;;;;;;7.05;5.82;;;;;;;18.51;63.47;101923.28;6304461;22;20479;-57
2022/08/30 03:26:44;;;;;;;10.23;5.93;;;;;;;18.47;63.60;101920.19;6304275;22;20007;-58
2022/08/30 03:29:09;;;;;;;8.85;6.00;;;;;;;18.52;63.85;101920.19;6306482;22;20054;-58
2022/08/30 03:31:35;;;;;;;9.68;6.05;;;;;;;18.55;63.27;101922.44;6304845;22;20000;-58
2022/08/30 03:34:01;;;;;;;9.35;5.68;;;;;;;18.53;63.54;101923.84;6304564;22;20026;-57
2022/08/30 03:36:26;;;;;;;8.80;6.20;;;;;;;18.53;63.56;101921.88;6305786;22;20010;-57
2022/08/30 03:38:51;;;;;;;9.23;6.78;;;;;;;18.51;63.51;101915.72;6306395;22;20146;-57
2022/08/30 03:41:17;;;;;;;9.20;6.28;;;;;;;18.47;63.46;101916.53;6305256;22;20007;-57
2022/08/30 03:43:45;;;;;;;7.25;6.28;;;;;;;18.45;63.75;101913.16;6304232;22;20018;-57
2022/08/30 03:46:11;;;;;;;9.40;6.80;;;;;;;18.45;63.70;101916.81;6304313;22;20061;-57
2022/08/30 03:48:36;;;;;;;10.60;6.60;;;;;;;18.40;63.74;101917.66;6304636;22;20007;-57
2022/08/30 03:51:02;;;;;;;8.77;6.45;;;;;;;18.40;63.71;101920.47;6306381;22;20007;-57
2022/08/30 03:53:27;;;;;;;9.38;7.28;;;;;;;18.42;63.51;101910.91;6304461;22;20004;-57
2022/08/30 03:55:53;;;;;;;9.18;7.05;;;;;;;18.42;63.72;101919.34;6304075;22;20014;-57
2022/08/30 03:58:19;;;;;;;10.13;7.13;;;;;;;18.43;63.65;101918.22;6305027;22;20014;-57
2022/08/30 04:00:44;;;;;;;7.25;6.32;;;;;;;18.47;63.54;101924.94;6305995;22;20011;-57
2022/08/30 04:03:09;;;;;;;7.72;6.60;;;;;;;18.41;63.60;101924.13;6305780;22;20049;-57
2022/08/30 04:05:35;;;;;;;10.73;7.45;;;;;;;18.40;63.70;101909.22;6305964;22;19999;-57
2022/08/30 04:08:00;;;;;;;11.15;6.63;;;;;;;18.42;63.58;101916.53;6304951;22;20457;-57
2022/08/30 04:10:25;;;;;;;9.25;7.38;;;;;;;18.38;63.79;101922.69;6305662;22;20003;-57
2022/08/30 04:12:51;;;;;;;9.48;7.50;;;;;;;18.31;64.16;101913.72;6306488;22;20011;-57
2022/08/30 04:15:18;;;;;;;8.52;6.97;;;;;;;18.36;63.73;101924.97;6304455;22;20004;-58
2022/08/30 04:17:43;;;;;;;8.20;7.32;;;;;;;18.30;64.02;101919.59;6304626;22;20007;-58
2022/08/30 04:20:09;;;;;;;9.95;7.28;;;;;;;18.33;63.83;101924.69;6305559;22;20014;-57
2022/08/30 04:22:35;;;;;;;10.48;7.60;;;;;;;18.33;63.66;101919.91;6306027;22;20018;-57
2022/08/30 04:25:02;;;;;;;9.20;7.57;;;;;;;18.30;63.93;101926.06;6303900;22;20394;-57
2022/08/30 04:27:27;;;;;;;9.30;7.43;;;;;;;18.31;63.70;101927.78;6306582;22;20030;-58
2022/08/30 04:29:53;;;;;;;11.77;7.90;;;;;;;18.27;64.14;101923.81;6304906;22;20014;-57
2022/08/30 04:32:19;;;;;;;12.10;8.27;;;;;;;18.32;63.70;101931.44;6305015;22;19999;-58
2022/08/30 04:34:44;;;;;;;10.77;7.55;;;;;;;18.29;63.98;101927.19;6305242;22;20316;-57
2022/08/30 04:37:09;;;;;;;9.50;8.15;;;;;;;18.23;64.17;101931.09;6305036;22;20041;-57
2022/08/30 04:39:35;;;;;;;11.52;8.07;;;;;;;18.22;64.13;101935.06;6305867;22;20007;-57
2022/08/30 04:42:02;;;;;;;8.27;7.47;;;;;;;18.26;64.00;101939.00;6304587;22;20068;-57
2022/08/30 04:44:27;;;;;;;10.20;7.95;;;;;;;18.26;63.92;101938.16;6303624;22;20003;-58
2022/08/30 04:46:53;;;;;;;8.30;7.50;;;;;;;18.29;63.95;101943.22;6305572;22;20007;-58
2022/08/30 04:49:19;;;;;;;10.00;8.10;;;;;;;18.27;63.80;101940.66;6304572;22;20022;-57
2022/08/30 04:51:44;;;;;;;9.60;8.60;;;;;;;18.24;63.86;101940.41;6303848;22;20081;-58
2022/08/30 04:54:09;;;;;;;10.40;8.15;;;;;;;18.20;64.18;101945.75;6304394;22;20461;-57
2022/08/30 04:56:35;;;;;;;9.18;8.27;;;;;;;18.23;64.04;101949.94;6305858;22;20043;-58
2022/08/30 04:59:01;;;;;;;9.45;8.45;;;;;;;18.20;64.06;101950.53;6305066;22;20093;-58
2022/08/30 05:01:30;;;;;;;11.32;8.63;;;;;;;18.21;64.27;101953.03;6303670;22;19999;-57
2022/08/30 05:03:57;;;;;;;12.77;8.63;;;;;;;18.16;64.24;101953.03;6305135;22;20473;-58
2022/08/30 05:06:26;;;;;;;9.55;7.95;;;;;;;18.19;64.34;101948.81;6303674;22;20315;-58
2022/08/30 05:08:52;;;;;;;11.57;8.95;;;;;;;18.14;64.31;101947.69;6304771;22;20026;-58
2022/08/30 05:11:18;;;;;;;10.38;8.68;;;;;;;18.12;64.19;101944.31;6304198;22;20006;-58
2022/08/30 05:13:45;;;;;;;9.55;8.52;;;;;;;18.10;64.49;101948.50;6304313;22;20011;-58
2022/08/30 05:16:16;;;;;;;12.05;8.35;;;;;;;18.13;64.26;101945.16;6305287;22;19999;-58
2022/08/30 05:18:43;;;;;;;13.73;9.17;;;;;;;18.12;64.29;101955.56;6305411;22;20336;-58
2022/08/30 05:21:17;;;;;;;10.65;9.60;;;;;;;18.08;64.49;101959.22;6301114;22;20039;-57
2022/08/30 05:23:43;;;;;;;10.30;9.35;;;;;;;18.07;64.45;101958.34;6304509;22;20003;-57
2022/08/30 05:26:17;;;;;;;12.48;9.05;;;;;;;18.06;64.36;101970.69;6303500;22;20097;-57
2022/08/30 05:28:43;;;;;;;10.95;8.98;;;;;;;18.08;64.51;101959.22;6304312;22;19999;-57
2022/08/30 05:31:14;;;;;;;13.40;9.60;;;;;;;18.04;64.47;101967.34;6305097;22;20629;-57
2022/08/30 05:33:40;;;;;;;13.57;9.73;;;;;;;18.05;64.53;101965.38;6304336;22;20014;-57
2022/08/30 05:36:06;;;;;;;14.40;9.57;;;;;;;18.12;64.41;101972.41;6304535;22;20427;-57
2022/08/30 05:38:31;;;;;;;11.07;9.52;;;;;;;18.08;64.39;101964.81;6303474;22;20015;-57
2022/08/30 05:40:57;;;;;;;10.70;9.65;;;;;;;18.10;64.62;101977.44;6302328;22;20007;-58
2022/08/30 05:43:22;;;;;;;11.60;9.82;;;;;;;18.08;64.44;101976.06;6303820;22;20042;-57
2022/08/30 05:45:47;;;;;;;11.48;9.93;;;;;;;18.06;64.73;101972.66;6303919;22;20377;-58
2022/08/30 05:48:13;;;;;;;11.65;10.13;;;;;;;18.11;64.99;101969.88;6303058;22;20003;-57
2022/08/30 05:50:38;;;;;;;10.48;9.38;;;;;;;18.10;64.78;101969.03;6304423;22;20406;-58
2022/08/30 05:53:03;;;;;;;12.05;10.23;;;;;;;18.10;64.69;101968.19;6305457;22;20078;-58
2022/08/30 05:55:29;;;;;;;12.45;10.52;;;;;;;18.12;64.29;101966.78;6303662;22;20015;-57
2022/08/30 05:57:54;;;;;;;11.27;10.10;;;;;;;18.08;64.75;101970.44;6296872;22;20331;-58
2022/08/30 06:00:20;;;;;;;11.73;10.60;;;;;;;18.08;64.73;101960.03;6299039;22;20007;-58
2022/08/30 06:02:45;;;;;;;11.68;10.60;;;;;;;18.12;64.61;101968.78;6298231;22;20005;-59
2022/08/30 06:05:11;;;;;;;12.10;10.25;;;;;;;18.14;64.52;101977.75;6300080;22;20470;-59
2022/08/30 06:07:36;;;;;;;14.75;11.65;;;;;;;18.13;64.77;101974.09;6299656;22;20419;-59
2022/08/30 06:10:03;;;;;;;11.85;10.70;;;;;;;18.18;64.48;101973.25;6300639;22;20017;-58
2022/08/30 06:12:28;;;;;;;12.88;10.75;;;;;;;18.19;64.64;101974.94;6302424;22;20003;-58
2022/08/30 06:14:54;;;;;;;12.00;10.90;;;;;;;18.20;64.62;101976.66;6301959;22;20014;-59
2022/08/30 06:17:19;;;;;;;15.10;11.02;;;;;;;18.25;64.46;101978.63;6299033;22;20455;-58
2022/08/30 06:19:44;;;;;;;14.43;10.98;;;;;;;18.29;64.42;101979.75;6301843;22;20011;-58
2022/08/30 06:22:10;;;;;;;13.13;11.68;;;;;;;18.25;64.80;101976.66;6302842;22;20003;-60
2022/08/30 06:24:35;;;;;;;13.13;11.73;;;;;;;18.30;64.24;101984.25;6300741;22;20092;-58
2022/08/30 06:27:01;;;;;;;13.00;11.63;;;;;;;18.32;64.47;101974.44;6304747;22;20377;-58
2022/08/30 06:29:26;;;;;;;12.30;11.20;;;;;;;18.33;64.14;101972.47;6304749;22;20296;-58
2022/08/30 06:31:52;;;;;;;12.60;11.25;;;;;;;18.31;64.13;101969.94;6303401;22;20007;-59
2022/08/30 06:34:17;;;;;;;13.40;10.88;;;;;;;18.36;64.12;101967.13;6305563;22;20034;-59
2022/08/30 06:36:43;;;;;;;13.45;12.07;;;;;;;18.40;64.17;101971.06;6302260;22;20006;-59
2022/08/30 06:39:09;;;;;;;12.85;11.55;;;;;;;18.41;64.01;101974.72;6303900;22;20007;-58
2022/08/30 06:41:36;;;;;;;13.75;12.45;;;;;;;18.44;64.02;101956.47;6303044;22;20404;-59
2022/08/30 06:44:03;;;;;;;14.40;12.38;;;;;;;18.43;63.78;101968.81;6302561;22;20544;-58
2022/08/30 06:46:32;;;;;;;14.15;11.15;;;;;;;18.52;63.42;101969.97;6304311;22;20015;-58
2022/08/30 06:48:58;;;;;;;14.48;13.10;;;;;;;18.52;63.42;101972.78;6303960;22;20431;-59
2022/08/30 06:51:27;;;;;;;13.55;12.23;;;;;;;18.58;63.38;101969.66;6304785;22;20007;-58
2022/08/30 06:53:56;;;;;;;13.75;12.35;;;;;;;18.55;63.48;101970.25;6305042;22;19999;-59
2022/08/30 06:56:22;;;;;;;14.35;12.52;;;;;;;18.59;63.58;101962.09;6305423;22;20117;-59
2022/08/30 06:58:47;;;;;;;14.07;12.57;;;;;;;18.58;63.33;101961.22;6304244;22;20046;-59
2022/08/30 07:01:15;;;;;;;14.65;13.10;;;;;;;18.64;63.29;101964.91;6304163;22;20030;-60
2022/08/30 07:03:41;;;;;;;15.85;13.00;;;;;;;18.65;63.14;101969.41;6304002;22;20010;-59
2022/08/30 07:06:06;;;;;;;13.75;12.43;;;;;;;18.72;63.17;101978.44;6303602;22;20007;-58
2022/08/30 07:08:32;;;;;;;17.40;12.40;;;;;;;18.74;63.23;101969.72;6303950;22;20007;-58
2022/08/30 07:10:57;;;;;;;13.88;12.27;;;;;;;18.82;63.04;101970.00;6304941;22;20015;-59
2022/08/30 07:13:23;;;;;;;12.57;11.38;;;;;;;18.88;62.71;101971.69;6304261;22;20301;-59
2022/08/30 07:15:50;;;;;;;13.23;11.88;;;;;;;18.93;62.75;101970.84;6304297;22;20350;-58
2022/08/30 07:21:07;;;;;;;12.07;10.82;;;;;;;19.03;62.30;101990.53;6303398;22;20025;-59
2022/08/30 07:23:32;;;;;;;11.40;9.93;;;;;;;19.04;61.44;101982.94;6304398;22;20102;-58
2022/08/30 07:25:57;;;;;;;10.90;9.80;;;;;;;19.07;61.80;101986.03;6302862;22;20034;-58
2022/08/30 07:28:23;;;;;;;12.10;9.88;;;;;;;19.17;61.53;101992.75;6305047;22;20058;-58
2022/08/30 07:30:48;;;;;;;11.43;10.32;;;;;;;19.28;61.55;101989.66;6304639;22;20002;-59
2022/08/30 07:33:13;;;;;;;12.77;10.18;;;;;;;19.30;60.67;101987.41;6303640;22;20003;-59
2022/08/30 07:35:39;;;;;;;11.95;9.48;;;;;;;19.25;60.67;101986.56;6304261;22;20133;-60
2022/08/30 07:38:04;;;;;;;11.63;10.43;;;;;;;19.24;60.79;101985.72;6304372;22;20003;-59
2022/08/30 07:40:29;;;;;;;11.57;10.40;;;;;;;19.24;60.85;101987.69;6304711;22;20045;-58
2022/08/30 07:42:55;;;;;;;11.93;10.00;;;;;;;19.23;61.27;101981.22;6304510;22;20025;-58
2022/08/30 07:45:20;;;;;;;10.13;9.23;;;;;;;19.27;61.36;101989.94;6304023;22;20008;-58
2022/08/30 07:47:51;;;;;;;12.25;10.43;;;;;;;19.29;61.41;101988.50;6303418;22;20011;-58
2022/08/30 07:50:16;;;;;;;7.10;6.07;;;;;;;19.45;60.69;101982.84;6304007;22;20646;-58
2022/08/30 07:52:42;;;;;;;7.38;5.50;;;;;;;19.57;60.76;101975.78;6301961;22;20000;-58
2022/08/30 07:55:08;;;;;;;7.10;5.95;;;;;;;19.77;59.67;101985.34;6303705;22;20053;-59
2022/08/30 07:57:34;;;;;;;10.63;9.25;;;;;;;19.76;59.96;101981.66;6302421;22;20478;-58
2022/08/30 08:00:00;;;;;;;5.45;4.90;;;;;;;19.95;59.22;101986.66;6302977;22;20003;-59
2022/08/30 08:02:25;;;;;;;7.32;5.55;;;;;;;20.02;59.38;101990.00;6301806;22;20007;-58
2022/08/30 08:04:51;;;;;;;9.52;4.82;;;;;;;20.17;58.98;101987.09;6304097;22;20053;-58
2022/08/30 08:07:16;;;;;;;8.18;7.38;;;;;;;20.17;59.06;101992.75;6304023;22;20014;-59
2022/08/30 08:09:42;;;;;;;11.88;9.00;;;;;;;20.19;59.21;101982.00;6302973;22;20004;-59
2022/08/30 08:12:08;;;;;;;11.13;9.10;;;;;;;20.18;58.82;101997.25;6304099;22;20011;-59
2022/08/30 08:14:34;;;;;;;9.88;8.98;;;;;;;20.18;57.87;101985.97;6305070;22;20052;-59
2022/08/30 08:17:00;;;;;;;9.35;4.78;;;;;;;20.24;58.21;101992.41;6303492;22;20078;-58
2022/08/30 08:19:25;;;;;;;5.15;4.55;;;;;;;20.31;58.45;101987.28;6304475;22;20308;-59
2022/08/30 08:21:55;;;;;;;5.18;4.60;;;;;;;20.36;58.12;101992.94;6303916;22;20010;-58
2022/08/30 08:24:24;;;;;;;9.38;5.50;;;;;;;20.49;58.00;101991.47;6303856;22;20008;-60
2022/08/30 08:26:49;;;;;;;11.27;8.25;;;;;;;20.39;58.07;101991.47;6303119;22;20003;-59
2022/08/30 08:29:15;;;;;;;7.22;5.70;;;;;;;20.41;57.56;102000.50;6303144;22;20760;-59
2022/08/30 08:31:41;;;;;;;8.30;7.43;;;;;;;20.33;57.71;101999.97;6304351;22;20031;-58
2022/08/30 08:34:06;;;;;;;9.80;6.82;;;;;;;20.30;57.53;102000.56;6303735;22;20010;-59
2022/08/30 08:36:33;;;;;;;7.65;6.95;;;;;;;20.27;57.34;101994.66;6303191;22;20007;-59
2022/08/30 08:38:59;;;;;;;10.02;7.05;;;;;;;20.26;57.77;101999.44;6303996;22;20007;-59
2022/08/30 08:41:35;;;;;;;10.23;6.00;;;;;;;20.30;57.63;102002.53;6303442;22;20431;-59
2022/08/30 08:44:26;;;;;;;8.27;5.20;;;;;;;20.45;57.70;102005.25;6302275;22;20081;-58
2022/08/30 08:47:01;;;;;;;7.65;6.47;;;;;;;20.49;57.05;102002.75;6302799;22;20462;-58
2022/08/30 08:49:27;;;;;;;6.05;5.50;;;;;;;20.49;56.65;101997.09;6302249;22;20000;-59
2022/08/30 08:54:45;;;;;;;5.13;3.70;;;;;;;20.68;56.73;102014.19;6302494;22;20141;-59
2022/08/30 08:57:11;;;;;;;6.20;5.68;;;;;;;20.73;55.97;102014.97;6303290;22;20007;-58
2022/08/30 08:59:37;;;;;;;7.75;3.78;;;;;;;20.84;56.29;102010.09;6303248;22;20018;-58
2022/08/30 09:02:24;;;;;;;15.13;6.93;;;;;;;20.82;56.01;102001.91;6302959;22;20021;-60
2022/08/30 09:04:53;;;;;;;7.00;5.93;;;;;;;20.83;55.82;102002.78;6302939;22;19999;-58
2022/08/30 09:07:25;;;;;;;7.57;5.47;;;;;;;20.96;55.87;102009.72;6304267;22;19999;-59
2022/08/30 09:09:50;;;;;;;9.77;6.63;;;;;;;21.01;55.30;102004.03;6304565;22;20017;-58
2022/08/30 09:12:16;;;;;;;9.07;5.57;;;;;;;21.04;55.11;102003.44;6303105;22;20031;-58
2022/08/30 09:14:50;;;;;;;6.45;5.85;;;;;;;21.12;55.27;102002.78;6304529;22;20304;-58
2022/08/30 09:17:18;;;;;;;3.95;3.38;;;;;;;21.32;55.03;101998.94;6304591;22;20058;-59
2022/08/30 09:19:52;;;;;;;5.70;3.33;;;;;;;21.40;54.99;101997.47;6302636;22;20061;-58
2022/08/30 09:22:33;;;;;;;7.28;5.35;;;;;;;21.41;54.49;101991.50;6304147;22;20004;-58
2022/08/30 09:25:07;;;;;;;7.32;4.30;;;;;;;21.53;53.95;101996.75;6303043;22;20004;-58
2022/08/30 09:27:36;;;;;;;4.35;3.95;;;;;;;21.62;53.57;101996.97;6303547;22;20014;-59
2022/08/30 09:30:23;;;;;;;5.95;4.13;;;;;;;21.70;53.32;101994.31;6303759;22;20003;-57
2022/08/30 09:32:58;;;;;;;6.47;3.92;;;;;;;21.81;53.40;102001.53;6302214;22;20003;-58
2022/08/30 09:35:47;;;;;;;6.90;4.03;;;;;;;21.86;53.27;102002.59;6304178;22;20062;-58
2022/08/30 09:38:19;;;;;;;6.80;3.50;;;;;;;21.93;52.31;101994.56;6303760;22;20003;-58
2022/08/30 09:40:48;;;;;;;5.15;3.15;;;;;;;21.96;51.96;102000.47;6302991;22;20339;-58
2022/08/30 09:43:16;;;;;;;10.05;4.38;;;;;;;21.94;51.79;101996.28;6304407;22;20074;-58
2022/08/30 09:45:48;;;;;;;6.43;3.90;;;;;;;21.93;52.19;101992.63;6302998;22;20022;-59
2022/08/30 09:48:42;;;;;;;4.80;3.17;;;;;;;22.06;52.33;102003.16;6302392;22;20394;-58
2022/08/30 09:51:20;;;;;;;7.85;4.00;;;;;;;22.12;51.66;102001.09;6304738;22;20070;-58
2022/08/30 09:53:54;;;;;;;3.30;2.60;;;;;;;22.19;51.50;102000.78;6301084;22;20033;-58
2022/08/30 09:56:36;;;;;;;7.60;2.85;;;;;;;22.23;51.38;102007.50;6301579;22;20007;-58
2022/08/30 09:59:16;;;;;;;;;;;;;;;22.27;51.51;101997.25;6302818;22;20003;-58
2022/08/30 10:01:47;;;;;;;5.15;2.90;;;;;;;22.27;50.15;101997.25;6300539;22;19911;-58
2022/08/30 10:04:33;;;;;;;6.53;3.67;;;;;;;22.30;51.23;102003.16;6301697;22;20087;-58
2022/08/30 10:07:28;;;;;;;5.05;2.78;;;;;;;22.35;50.46;102005.06;6302357;22;20014;-58
2022/08/30 10:10:15;;;;;;;9.48;3.28;;;;;;;22.30;50.16;102002.31;6288226;22;20015;-58
2022/08/30 10:13:19;;;;;;;5.28;2.85;;;;;;;22.36;50.69;102001.13;6302830;22;20026;-57
2022/08/30 10:15:54;;;;;;;5.07;3.05;;;;;;;22.32;49.70;101999.16;6301735;22;20082;-58
2022/08/30 10:18:26;;;;;;;4.50;2.55;;;;;;;22.33;49.86;101993.22;6302043;22;20420;-59
2022/08/30 10:21:05;;;;;;;6.03;2.53;;;;;;;22.33;49.20;101990.41;6302322;22;20053;-58
2022/08/30 10:23:35;;;;;;;7.03;2.65;;;;;;;22.30;48.86;101991.84;6300866;22;20003;-58
2022/08/30 10:26:32;;;;;;;4.28;2.90;;;;;;;22.28;49.27;102002.63;6300558;22;20003;-58
2022/08/30 10:29:07;;;;;;;3.60;3.05;;;;;;;22.27;49.05;101988.78;6283824;22;20343;-59
2022/08/30 10:31:51;;;;;;;8.35;2.78;;;;;;;22.28;49.36;101982.84;6302716;22;20003;-58
2022/08/30 10:34:25;;;;;;;3.17;2.60;;;;;;;22.36;49.15;101994.59;6302374;22;20016;-58
2022/08/30 10:36:59;;;;;;;4.90;2.50;;;;;;;22.44;49.01;101985.41;6301963;22;20082;-58
2022/08/30 10:39:30;;;;;;;7.90;3.15;;;;;;;22.44;48.45;101982.59;6301241;22;20027;-58
2022/08/30 10:42:07;;;;;;;5.47;2.97;;;;;;;22.49;48.87;101983.38;6302835;22;20057;-58
2022/08/30 10:45:10;;;;;;;8.27;2.80;;;;;;;22.55;49.24;101990.59;6301721;22;20022;-58
2022/08/30 10:47:43;;;;;;;8.73;2.92;;;;;;;22.59;48.23;101988.00;6295431;22;20007;-58
2022/08/30 10:50:15;;;;;;;3.17;2.28;;;;;;;22.60;48.21;101994.50;6301773;22;20077;-57
2022/08/30 10:52:53;;;;;;;3.83;2.80;;;;;;;22.66;48.33;101987.63;6301073;22;20014;-58
2022/08/30 10:55:24;;;;;;;6.80;2.92;;;;;;;22.67;47.70;101986.47;6302233;22;20006;-58
2022/08/30 10:57:50;;;;;;;2.30;2.10;;;;;;;22.72;47.63;101977.91;6299317;22;20017;-57
2022/08/30 11:00:34;;;;;;;5.80;2.60;;;;;;;22.71;47.89;101979.88;6303153;22;20014;-60
2022/08/30 11:03:38;;;;;;;5.28;2.70;;;;;;;22.78;47.99;101986.00;6303746;22;20033;-59
2022/08/30 11:06:22;;;;;;;7.15;2.78;;;;;;;22.81;47.16;101978.06;6299570;22;20018;-58
2022/08/30 11:09:18;;;;;;;3.70;1.80;;;;;;;22.75;47.90;101975.31;6302608;22;20006;-58
2022/08/30 11:12:08;;;;;;;3.90;2.40;;;;;;;22.79;48.25;101973.56;6302188;22;20004;-59
2022/08/30 11:14:40;;;;;;;3.63;2.35;;;;;;;22.86;47.89;101972.28;6302319;22;20081;-59
2022/08/30 11:17:37;;;;;;;4.80;2.35;;;;;;;22.90;48.00;101976.19;6304292;22;20003;-58
2022/08/30 11:20:04;;;;;;;3.85;2.17;;;;;;;22.93;47.12;101975.59;6299536;22;20007;-59
2022/08/30 11:22:34;;;;;;;4.93;2.30;;;;;;;22.96;47.17;101969.34;6303139;22;20415;-59
2022/08/30 11:25:02;;;;;;;3.55;2.50;;;;;;;22.97;46.64;101976.66;6302601;22;20010;-58
2022/08/30 11:27:47;;;;;;;3.22;2.22;;;;;;;22.94;46.95;101971.63;6303901;22;20007;-59
2022/08/30 11:30:42;;;;;;;5.38;2.35;;;;;;;22.96;47.62;101970.16;6305357;22;20018;-59
2022/08/30 11:33:10;;;;;;;5.32;2.20;;;;;;;22.99;46.75;101968.69;6297919;22;20478;-59
2022/08/30 11:35:42;;;;;;;8.93;2.60;;;;;;;22.97;46.51;101977.50;6305437;22;20322;-59